sensor_id;sensor_type;location;lat;lon;timestamp;temperature;humidity
20845;DHT22;10583;49.084;8.646;2023-02-26T00:02:08;0.70;99.90
20845;DHT22;10583;49.084;8.646;2023-02-26T00:04:35;0.60;99.90
20845;DHT22;10583;49.084;8.646;2023-02-26T00:07:03;0.60;99.90
20845;DHT22;10583;49.084;8.646;2023-02-26T00:09:31;0.60;99.90
20845;DHT22;10583;49.084;8.646;2023-02-26T00:11:58;0.60;99.90
20845;DHT22;10583;49.084;8.646;2023-02-26T00:14:26;0.60;99.90
20845;DHT22;10583;49.084;8.646;2023-02-26T00:17:08;0.60;99.90
20845;DHT22;10583;49.084;8.646;2023-02-26T00:19:39;0.60;99.90
20845;DHT22;10583;49.084;8.646;2023-02-26T00:22:06;0.60;99.90
20845;DHT22;10583;49.084;8.646;2023-02-26T00:24:33;0.50;99.90
20845;DHT22;10583;49.084;8.646;2023-02-26T00:26:59;0.60;99.90
20845;DHT22;10583;49.084;8.646;2023-02-26T00:29:26;0.60;99.90
20845;DHT22;10583;49.084;8.646;2023-02-26T00:31:53;0.50;99.90
20845;DHT22;10583;49.084;8.646;2023-02-26T00:34:22;0.50;99.90
20845;DHT22;10583;49.084;8.646;2023-02-26T00:36:56;0.50;99.90
20845;DHT22;10583;49.084;8.646;2023-02-26T00:39:34;0.50;99.90
20845;DHT22;10583;49.084;8.646;2023-02-26T00:42:04;0.50;99.90
20845;DHT22;10583;49.084;8.646;2023-02-26T00:44:31;0.40;99.90
20845;DHT22;10583;49.084;8.646;2023-02-26T00:47:02;0.40;99.90
20845;DHT22;10583;49.084;8.646;2023-02-26T00:49:54;0.30;99.90
20845;DHT22;10583;49.084;8.646;2023-02-26T00:52:30;0.30;99.90
20845;DHT22;10583;49.084;8.646;2023-02-26T00:54:58;0.20;99.90
20845;DHT22;10583;49.084;8.646;2023-02-26T00:57:25;0.20;99.90
20845;DHT22;10583;49.084;8.646;2023-02-26T00:59:52;0.10;99.90
20845;DHT22;10583;49.084;8.646;2023-02-26T01:02:19;0.10;99.90
20845;DHT22;10583;49.084;8.646;2023-02-26T01:04:47;0.00;99.90
20845;DHT22;10583;49.084;8.646;2023-02-26T01:07:16;-0.10;99.90
20845;DHT22;10583;49.084;8.646;2023-02-26T01:09:45;-0.10;99.90
20845;DHT22;10583;49.084;8.646;2023-02-26T01:12:13;-0.20;99.90
20845;DHT22;10583;49.084;8.646;2023-02-26T01:14:42;-0.20;99.90
20845;DHT22;10583;49.084;8.646;2023-02-26T01:17:16;-0.20;99.90
20845;DHT22;10583;49.084;8.646;2023-02-26T01:19:48;-0.30;99.90
20845;DHT22;10583;49.084;8.646;2023-02-26T01:22:20;-0.30;99.90
20845;DHT22;10583;49.084;8.646;2023-02-26T01:24:53;-0.40;99.90
20845;DHT22;10583;49.084;8.646;2023-02-26T01:27:22;-0.50;99.90
20845;DHT22;10583;49.084;8.646;2023-02-26T01:29:49;-0.50;99.90
20845;DHT22;10583;49.084;8.646;2023-02-26T01:32:19;-0.50;99.90
20845;DHT22;10583;49.084;8.646;2023-02-26T01:34:55;-0.60;99.90
20845;DHT22;10583;49.084;8.646;2023-02-26T01:37:28;-0.60;99.90
20845;DHT22;10583;49.084;8.646;2023-02-26T01:40:27;-0.60;99.90
20845;DHT22;10583;49.084;8.646;2023-02-26T01:42:57;-0.70;99.90
20845;DHT22;10583;49.084;8.646;2023-02-26T01:45:31;-0.80;99.90
20845;DHT22;10583;49.084;8.646;2023-02-26T01:48:03;-0.90;99.90
20845;DHT22;10583;49.084;8.646;2023-02-26T01:50:34;-1.10;99.90
20845;DHT22;10583;49.084;8.646;2023-02-26T01:53:16;-1.20;99.90
20845;DHT22;10583;49.084;8.646;2023-02-26T01:55:45;-1.30;99.90
20845;DHT22;10583;49.084;8.646;2023-02-26T01:58:14;-1.40;99.90
20845;DHT22;10583;49.084;8.646;2023-02-26T02:00:42;-1.60;99.90
20845;DHT22;10583;49.084;8.646;2023-02-26T02:03:09;-1.70;99.90
20845;DHT22;10583;49.084;8.646;2023-02-26T02:05:42;-1.70;99.90
20845;DHT22;10583;49.084;8.646;2023-02-26T02:08:11;-1.80;99.90
20845;DHT22;10583;49.084;8.646;2023-02-26T02:10:41;-1.80;99.90
20845;DHT22;10583;49.084;8.646;2023-02-26T02:13:14;-1.80;99.90
20845;DHT22;10583;49.084;8.646;2023-02-26T02:15:45;-1.80;99.90
20845;DHT22;10583;49.084;8.646;2023-02-26T02:18:21;-1.80;99.90
20845;DHT22;10583;49.084;8.646;2023-02-26T02:21:22;-1.80;99.90
20845;DHT22;10583;49.084;8.646;2023-02-26T02:23:55;-2.00;99.90
20845;DHT22;10583;49.084;8.646;2023-02-26T02:26:46;-2.00;99.90
20845;DHT22;10583;49.084;8.646;2023-02-26T02:29:59;-2.10;99.90
20845;DHT22;10583;49.084;8.646;2023-02-26T02:32:34;-2.10;99.90
20845;DHT22;10583;49.084;8.646;2023-02-26T02:35:10;-2.10;99.90
20845;DHT22;10583;49.084;8.646;2023-02-26T02:37:42;-2.10;99.90
20845;DHT22;10583;49.084;8.646;2023-02-26T02:40:14;-2.20;99.90
20845;DHT22;10583;49.084;8.646;2023-02-26T02:42:44;-2.20;99.90
20845;DHT22;10583;49.084;8.646;2023-02-26T02:45:17;-2.10;99.90
20845;DHT22;10583;49.084;8.646;2023-02-26T02:47:48;-2.10;99.90
20845;DHT22;10583;49.084;8.646;2023-02-26T02:50:19;-2.10;99.90
20845;DHT22;10583;49.084;8.646;2023-02-26T02:52:50;-2.10;99.90
20845;DHT22;10583;49.084;8.646;2023-02-26T02:55:21;-2.10;99.90
20845;DHT22;10583;49.084;8.646;2023-02-26T02:57:54;-2.00;99.90
20845;DHT22;10583;49.084;8.646;2023-02-26T03:00:25;-2.00;99.90
20845;DHT22;10583;49.084;8.646;2023-02-26T03:02:59;-2.10;99.90
20845;DHT22;10583;49.084;8.646;2023-02-26T03:05:28;-2.10;99.90
20845;DHT22;10583;49.084;8.646;2023-02-26T03:07:59;-2.20;99.90
20845;DHT22;10583;49.084;8.646;2023-02-26T03:10:27;-2.20;99.90
20845;DHT22;10583;49.084;8.646;2023-02-26T03:12:54;-2.20;99.90
20845;DHT22;10583;49.084;8.646;2023-02-26T03:15:30;-2.20;99.90
20845;DHT22;10583;49.084;8.646;2023-02-26T03:18:09;-2.20;99.90
20845;DHT22;10583;49.084;8.646;2023-02-26T03:20:43;-2.20;99.90
20845;DHT22;10583;49.084;8.646;2023-02-26T03:23:16;-2.20;99.90
20845;DHT22;10583;49.084;8.646;2023-02-26T03:25:48;-2.20;99.90
20845;DHT22;10583;49.084;8.646;2023-02-26T03:28:19;-2.30;99.90
20845;DHT22;10583;49.084;8.646;2023-02-26T03:30:54;-2.30;99.90
20845;DHT22;10583;49.084;8.646;2023-02-26T03:33:27;-2.30;99.90
20845;DHT22;10583;49.084;8.646;2023-02-26T03:36:00;-2.40;99.90
20845;DHT22;10583;49.084;8.646;2023-02-26T03:38:32;-2.50;99.90
20845;DHT22;10583;49.084;8.646;2023-02-26T03:41:05;-2.50;99.90
20845;DHT22;10583;49.084;8.646;2023-02-26T03:43:36;-2.60;99.90
20845;DHT22;10583;49.084;8.646;2023-02-26T03:46:08;-2.70;99.90
20845;DHT22;10583;49.084;8.646;2023-02-26T03:48:38;-2.70;99.90
20845;DHT22;10583;49.084;8.646;2023-02-26T03:51:07;-2.80;99.90
20845;DHT22;10583;49.084;8.646;2023-02-26T03:53:40;-2.90;99.90
20845;DHT22;10583;49.084;8.646;2023-02-26T03:56:14;-3.00;99.90
20845;DHT22;10583;49.084;8.646;2023-02-26T03:58:42;-3.00;99.90
20845;DHT22;10583;49.084;8.646;2023-02-26T04:01:13;-3.00;99.90
20845;DHT22;10583;49.084;8.646;2023-02-26T04:03:46;-3.00;99.90
20845;DHT22;10583;49.084;8.646;2023-02-26T04:06:14;-2.90;99.90
20845;DHT22;10583;49.084;8.646;2023-02-26T04:08:41;-3.00;99.90
20845;DHT22;10583;49.084;8.646;2023-02-26T04:11:11;-2.90;99.90
20845;DHT22;10583;49.084;8.646;2023-02-26T04:13:41;-3.00;99.90
20845;DHT22;10583;49.084;8.646;2023-02-26T04:16:08;-2.90;99.90
20845;DHT22;10583;49.084;8.646;2023-02-26T04:18:35;-2.90;99.90
20845;DHT22;10583;49.084;8.646;2023-02-26T04:21:03;-3.00;99.90
20845;DHT22;10583;49.084;8.646;2023-02-26T04:23:30;-3.00;99.90
20845;DHT22;10583;49.084;8.646;2023-02-26T04:25:56;-3.00;99.90
20845;DHT22;10583;49.084;8.646;2023-02-26T04:28:23;-3.00;99.90
20845;DHT22;10583;49.084;8.646;2023-02-26T04:30:50;-3.00;99.90
20845;DHT22;10583;49.084;8.646;2023-02-26T04:33:16;-3.00;99.90
20845;DHT22;10583;49.084;8.646;2023-02-26T04:35:43;-3.10;99.90
20845;DHT22;10583;49.084;8.646;2023-02-26T04:38:11;-3.10;99.90
20845;DHT22;10583;49.084;8.646;2023-02-26T04:40:38;-3.20;99.90
20845;DHT22;10583;49.084;8.646;2023-02-26T04:43:05;-3.20;99.90
20845;DHT22;10583;49.084;8.646;2023-02-26T04:45:32;-3.20;99.90
20845;DHT22;10583;49.084;8.646;2023-02-26T04:47:58;-3.20;99.90
20845;DHT22;10583;49.084;8.646;2023-02-26T04:50:25;-3.20;99.90
20845;DHT22;10583;49.084;8.646;2023-02-26T04:52:52;-3.10;99.90
20845;DHT22;10583;49.084;8.646;2023-02-26T04:55:20;-3.10;99.90
20845;DHT22;10583;49.084;8.646;2023-02-26T04:57:47;-3.10;99.90
20845;DHT22;10583;49.084;8.646;2023-02-26T05:00:15;-3.10;99.90
20845;DHT22;10583;49.084;8.646;2023-02-26T05:02:42;-3.20;99.90
20845;DHT22;10583;49.084;8.646;2023-02-26T05:05:08;-3.20;99.90
20845;DHT22;10583;49.084;8.646;2023-02-26T05:07:35;-3.20;99.90
20845;DHT22;10583;49.084;8.646;2023-02-26T05:10:02;-3.30;99.90
20845;DHT22;10583;49.084;8.646;2023-02-26T05:12:30;-3.30;99.90
20845;DHT22;10583;49.084;8.646;2023-02-26T05:14:57;-3.30;99.90
20845;DHT22;10583;49.084;8.646;2023-02-26T05:17:24;-3.30;99.90
20845;DHT22;10583;49.084;8.646;2023-02-26T05:19:51;-3.30;99.90
20845;DHT22;10583;49.084;8.646;2023-02-26T05:22:18;-3.40;99.90
20845;DHT22;10583;49.084;8.646;2023-02-26T05:24:44;-3.50;99.90
20845;DHT22;10583;49.084;8.646;2023-02-26T05:27:11;-3.50;99.90
20845;DHT22;10583;49.084;8.646;2023-02-26T05:29:40;-3.50;99.90
20845;DHT22;10583;49.084;8.646;2023-02-26T05:32:09;-3.50;99.90
20845;DHT22;10583;49.084;8.646;2023-02-26T05:34:36;-3.50;99.90
20845;DHT22;10583;49.084;8.646;2023-02-26T05:37:02;-3.50;99.90
20845;DHT22;10583;49.084;8.646;2023-02-26T05:39:29;-3.50;99.90
20845;DHT22;10583;49.084;8.646;2023-02-26T05:41:56;-3.50;99.90
20845;DHT22;10583;49.084;8.646;2023-02-26T05:44:23;-3.50;99.90
20845;DHT22;10583;49.084;8.646;2023-02-26T05:46:51;-3.50;99.90
20845;DHT22;10583;49.084;8.646;2023-02-26T05:49:18;-3.50;99.90
20845;DHT22;10583;49.084;8.646;2023-02-26T05:51:45;-3.50;99.90
20845;DHT22;10583;49.084;8.646;2023-02-26T05:54:11;-3.60;99.90
20845;DHT22;10583;49.084;8.646;2023-02-26T05:56:38;-3.60;99.90
20845;DHT22;10583;49.084;8.646;2023-02-26T05:59:05;-3.70;99.90
20845;DHT22;10583;49.084;8.646;2023-02-26T06:01:32;-3.60;99.90
20845;DHT22;10583;49.084;8.646;2023-02-26T06:04:00;-3.70;99.90
20845;DHT22;10583;49.084;8.646;2023-02-26T06:06:26;-3.70;99.90
20845;DHT22;10583;49.084;8.646;2023-02-26T06:08:53;-3.80;99.90
20845;DHT22;10583;49.084;8.646;2023-02-26T06:11:20;-3.90;99.90
20845;DHT22;10583;49.084;8.646;2023-02-26T06:13:46;-3.90;99.90
20845;DHT22;10583;49.084;8.646;2023-02-26T06:16:13;-3.90;99.90
20845;DHT22;10583;49.084;8.646;2023-02-26T06:18:40;-3.90;99.90
20845;DHT22;10583;49.084;8.646;2023-02-26T06:21:08;-4.00;99.90
20845;DHT22;10583;49.084;8.646;2023-02-26T06:23:34;-4.00;99.90
20845;DHT22;10583;49.084;8.646;2023-02-26T06:26:01;-4.00;99.90
20845;DHT22;10583;49.084;8.646;2023-02-26T06:28:28;-3.90;99.90
20845;DHT22;10583;49.084;8.646;2023-02-26T06:30:55;-3.90;99.90
20845;DHT22;10583;49.084;8.646;2023-02-26T06:33:22;-3.80;99.90
20845;DHT22;10583;49.084;8.646;2023-02-26T06:35:49;-3.80;99.90
20845;DHT22;10583;49.084;8.646;2023-02-26T06:38:17;-3.70;99.90
20845;DHT22;10583;49.084;8.646;2023-02-26T06:40:45;-3.60;99.90
20845;DHT22;10583;49.084;8.646;2023-02-26T06:43:13;-3.60;99.90
20845;DHT22;10583;49.084;8.646;2023-02-26T06:45:39;-3.60;99.90
20845;DHT22;10583;49.084;8.646;2023-02-26T06:48:06;-3.60;99.90
20845;DHT22;10583;49.084;8.646;2023-02-26T06:50:33;-3.50;99.90
20845;DHT22;10583;49.084;8.646;2023-02-26T06:52:59;-3.40;99.90
20845;DHT22;10583;49.084;8.646;2023-02-26T06:55:27;-3.30;99.90
20845;DHT22;10583;49.084;8.646;2023-02-26T06:57:55;-3.20;99.90
20845;DHT22;10583;49.084;8.646;2023-02-26T07:00:22;-3.00;99.90
20845;DHT22;10583;49.084;8.646;2023-02-26T07:02:49;-2.70;99.90
20845;DHT22;10583;49.084;8.646;2023-02-26T07:05:16;-2.50;99.90
20845;DHT22;10583;49.084;8.646;2023-02-26T07:07:43;-2.30;99.90
20845;DHT22;10583;49.084;8.646;2023-02-26T07:10:11;-2.20;99.90
20845;DHT22;10583;49.084;8.646;2023-02-26T07:12:39;-2.00;99.90
20845;DHT22;10583;49.084;8.646;2023-02-26T07:15:07;-1.90;99.90
20845;DHT22;10583;49.084;8.646;2023-02-26T07:17:34;-1.70;99.90
20845;DHT22;10583;49.084;8.646;2023-02-26T07:20:01;-1.60;99.90
20845;DHT22;10583;49.084;8.646;2023-02-26T07:22:33;-1.50;99.90
20845;DHT22;10583;49.084;8.646;2023-02-26T07:25:00;-1.40;99.90
20845;DHT22;10583;49.084;8.646;2023-02-26T07:27:27;-1.20;99.90
20845;DHT22;10583;49.084;8.646;2023-02-26T07:29:55;-1.00;99.90
20845;DHT22;10583;49.084;8.646;2023-02-26T07:32:22;-0.90;99.90
20845;DHT22;10583;49.084;8.646;2023-02-26T07:34:49;-0.90;99.90
20845;DHT22;10583;49.084;8.646;2023-02-26T07:37:15;-0.80;99.90
20845;DHT22;10583;49.084;8.646;2023-02-26T07:39:42;-0.70;99.90
20845;DHT22;10583;49.084;8.646;2023-02-26T07:42:09;-0.70;99.90
20845;DHT22;10583;49.084;8.646;2023-02-26T07:44:36;-0.70;99.90
20845;DHT22;10583;49.084;8.646;2023-02-26T07:47:04;-0.70;99.90
20845;DHT22;10583;49.084;8.646;2023-02-26T07:49:31;-0.60;99.90
20845;DHT22;10583;49.084;8.646;2023-02-26T07:51:58;-0.60;99.90
20845;DHT22;10583;49.084;8.646;2023-02-26T07:54:25;-0.50;99.90
20845;DHT22;10583;49.084;8.646;2023-02-26T07:56:52;-0.60;99.90
20845;DHT22;10583;49.084;8.646;2023-02-26T07:59:19;-0.60;99.90
20845;DHT22;10583;49.084;8.646;2023-02-26T08:01:46;-0.50;99.90
20845;DHT22;10583;49.084;8.646;2023-02-26T08:04:15;-0.40;99.90
20845;DHT22;10583;49.084;8.646;2023-02-26T08:06:42;-0.20;99.90
20845;DHT22;10583;49.084;8.646;2023-02-26T08:09:09;-0.10;99.90
20845;DHT22;10583;49.084;8.646;2023-02-26T08:11:36;0.10;99.90
20845;DHT22;10583;49.084;8.646;2023-02-26T08:14:05;0.20;99.90
20845;DHT22;10583;49.084;8.646;2023-02-26T08:16:32;0.30;99.90
20845;DHT22;10583;49.084;8.646;2023-02-26T08:19:00;0.30;99.90
20845;DHT22;10583;49.084;8.646;2023-02-26T08:21:28;0.30;99.90
20845;DHT22;10583;49.084;8.646;2023-02-26T08:23:57;0.30;99.90
20845;DHT22;10583;49.084;8.646;2023-02-26T08:26:24;0.30;99.90
20845;DHT22;10583;49.084;8.646;2023-02-26T08:28:51;0.20;99.90
20845;DHT22;10583;49.084;8.646;2023-02-26T08:31:19;0.20;99.90
20845;DHT22;10583;49.084;8.646;2023-02-26T08:33:47;0.30;99.90
20845;DHT22;10583;49.084;8.646;2023-02-26T08:36:14;0.30;99.90
20845;DHT22;10583;49.084;8.646;2023-02-26T08:38:46;0.50;99.90
20845;DHT22;10583;49.084;8.646;2023-02-26T08:41:14;0.60;99.90
20845;DHT22;10583;49.084;8.646;2023-02-26T08:43:42;0.70;99.90
20845;DHT22;10583;49.084;8.646;2023-02-26T08:46:10;0.70;99.90
20845;DHT22;10583;49.084;8.646;2023-02-26T08:48:37;0.80;99.90
20845;DHT22;10583;49.084;8.646;2023-02-26T08:51:04;0.90;99.90
20845;DHT22;10583;49.084;8.646;2023-02-26T08:53:31;1.00;99.90
20845;DHT22;10583;49.084;8.646;2023-02-26T08:56:00;1.20;99.90
20845;DHT22;10583;49.084;8.646;2023-02-26T08:58:27;1.50;99.90
20845;DHT22;10583;49.084;8.646;2023-02-26T09:00:54;1.80;99.90
20845;DHT22;10583;49.084;8.646;2023-02-26T09:03:21;2.00;99.90
20845;DHT22;10583;49.084;8.646;2023-02-26T09:05:50;2.10;99.90
20845;DHT22;10583;49.084;8.646;2023-02-26T09:08:17;2.00;99.90
20845;DHT22;10583;49.084;8.646;2023-02-26T09:10:45;2.10;99.90
20845;DHT22;10583;49.084;8.646;2023-02-26T09:13:14;2.20;99.90
20845;DHT22;10583;49.084;8.646;2023-02-26T09:15:42;2.20;99.90
20845;DHT22;10583;49.084;8.646;2023-02-26T09:18:09;2.20;99.90
20845;DHT22;10583;49.084;8.646;2023-02-26T09:20:40;2.10;99.90
20845;DHT22;10583;49.084;8.646;2023-02-26T09:23:08;2.10;99.90
20845;DHT22;10583;49.084;8.646;2023-02-26T09:25:35;2.00;99.90
20845;DHT22;10583;49.084;8.646;2023-02-26T09:28:03;1.80;99.90
20845;DHT22;10583;49.084;8.646;2023-02-26T09:30:34;1.80;99.90
20845;DHT22;10583;49.084;8.646;2023-02-26T09:33:01;1.70;99.90
20845;DHT22;10583;49.084;8.646;2023-02-26T09:35:28;1.60;99.90
20845;DHT22;10583;49.084;8.646;2023-02-26T09:37:55;1.60;99.90
20845;DHT22;10583;49.084;8.646;2023-02-26T09:40:29;1.50;99.90
20845;DHT22;10583;49.084;8.646;2023-02-26T09:43:26;1.50;99.90
20845;DHT22;10583;49.084;8.646;2023-02-26T09:46:17;1.30;99.90
20845;DHT22;10583;49.084;8.646;2023-02-26T09:48:48;1.10;99.90
20845;DHT22;10583;49.084;8.646;2023-02-26T09:51:20;1.10;99.90
20845;DHT22;10583;49.084;8.646;2023-02-26T09:53:48;1.10;99.90
20845;DHT22;10583;49.084;8.646;2023-02-26T09:56:18;1.20;99.90
20845;DHT22;10583;49.084;8.646;2023-02-26T09:58:47;1.20;99.90
20845;DHT22;10583;49.084;8.646;2023-02-26T10:01:21;1.30;99.90
20845;DHT22;10583;49.084;8.646;2023-02-26T10:03:57;1.20;99.90
20845;DHT22;10583;49.084;8.646;2023-02-26T10:06:30;1.20;99.90
20845;DHT22;10583;49.084;8.646;2023-02-26T10:09:12;1.20;99.90
20845;DHT22;10583;49.084;8.646;2023-02-26T10:11:47;1.30;99.90
20845;DHT22;10583;49.084;8.646;2023-02-26T10:14:21;1.30;99.90
20845;DHT22;10583;49.084;8.646;2023-02-26T10:16:53;1.30;99.90
20845;DHT22;10583;49.084;8.646;2023-02-26T10:19:26;1.40;99.90
20845;DHT22;10583;49.084;8.646;2023-02-26T10:21:58;1.40;99.90
20845;DHT22;10583;49.084;8.646;2023-02-26T10:24:30;1.40;99.90
20845;DHT22;10583;49.084;8.646;2023-02-26T10:27:05;1.50;99.90
20845;DHT22;10583;49.084;8.646;2023-02-26T10:29:37;1.40;99.90
20845;DHT22;10583;49.084;8.646;2023-02-26T10:32:18;1.50;99.90
20845;DHT22;10583;49.084;8.646;2023-02-26T10:34:51;1.50;99.90
20845;DHT22;10583;49.084;8.646;2023-02-26T10:37:36;1.60;99.90
20845;DHT22;10583;49.084;8.646;2023-02-26T10:40:10;1.60;99.90
20845;DHT22;10583;49.084;8.646;2023-02-26T10:42:40;1.60;99.90
20845;DHT22;10583;49.084;8.646;2023-02-26T10:45:21;1.70;99.90
20845;DHT22;10583;49.084;8.646;2023-02-26T10:47:59;1.80;99.90
20845;DHT22;10583;49.084;8.646;2023-02-26T10:50:28;1.80;99.90
20845;DHT22;10583;49.084;8.646;2023-02-26T10:52:57;1.80;99.90
20845;DHT22;10583;49.084;8.646;2023-02-26T10:55:35;1.90;99.90
20845;DHT22;10583;49.084;8.646;2023-02-26T10:58:06;2.00;99.90
20845;DHT22;10583;49.084;8.646;2023-02-26T11:00:35;1.90;99.90
20845;DHT22;10583;49.084;8.646;2023-02-26T11:03:05;2.00;99.90
20845;DHT22;10583;49.084;8.646;2023-02-26T11:05:33;2.10;99.90
20845;DHT22;10583;49.084;8.646;2023-02-26T11:08:02;2.10;99.90
20845;DHT22;10583;49.084;8.646;2023-02-26T11:10:38;2.00;99.90
20845;DHT22;10583;49.084;8.646;2023-02-26T11:13:05;2.00;99.90
20845;DHT22;10583;49.084;8.646;2023-02-26T11:15:32;1.90;99.90
20845;DHT22;10583;49.084;8.646;2023-02-26T11:18:00;1.80;99.90
20845;DHT22;10583;49.084;8.646;2023-02-26T11:20:35;1.70;99.90
20845;DHT22;10583;49.084;8.646;2023-02-26T11:23:05;1.60;99.90
20845;DHT22;10583;49.084;8.646;2023-02-26T11:25:33;1.70;99.90
20845;DHT22;10583;49.084;8.646;2023-02-26T11:28:03;1.80;99.90
20845;DHT22;10583;49.084;8.646;2023-02-26T11:30:34;1.90;99.90
20845;DHT22;10583;49.084;8.646;2023-02-26T11:33:06;2.00;99.90
20845;DHT22;10583;49.084;8.646;2023-02-26T11:35:40;2.10;99.90
20845;DHT22;10583;49.084;8.646;2023-02-26T11:38:14;2.10;99.90
20845;DHT22;10583;49.084;8.646;2023-02-26T11:40:45;2.30;99.90
20845;DHT22;10583;49.084;8.646;2023-02-26T11:43:14;2.30;99.90
20845;DHT22;10583;49.084;8.646;2023-02-26T11:45:45;2.20;99.90
20845;DHT22;10583;49.084;8.646;2023-02-26T11:48:21;2.20;99.90
20845;DHT22;10583;49.084;8.646;2023-02-26T11:50:52;2.30;99.90
20845;DHT22;10583;49.084;8.646;2023-02-26T11:53:24;2.30;99.90
20845;DHT22;10583;49.084;8.646;2023-02-26T11:55:52;2.40;99.90
20845;DHT22;10583;49.084;8.646;2023-02-26T11:58:23;2.50;99.90
20845;DHT22;10583;49.084;8.646;2023-02-26T12:00:51;2.50;99.90
20845;DHT22;10583;49.084;8.646;2023-02-26T12:03:20;2.50;99.90
20845;DHT22;10583;49.084;8.646;2023-02-26T12:05:47;2.50;99.90
20845;DHT22;10583;49.084;8.646;2023-02-26T12:08:24;2.80;99.90
20845;DHT22;10583;49.084;8.646;2023-02-26T12:11:05;3.00;99.90
20845;DHT22;10583;49.084;8.646;2023-02-26T12:13:39;2.90;99.90
20845;DHT22;10583;49.084;8.646;2023-02-26T12:16:14;2.70;99.90
20845;DHT22;10583;49.084;8.646;2023-02-26T12:18:53;2.50;99.90
20845;DHT22;10583;49.084;8.646;2023-02-26T12:21:33;2.40;99.90
20845;DHT22;10583;49.084;8.646;2023-02-26T12:24:23;2.40;99.90
20845;DHT22;10583;49.084;8.646;2023-02-26T12:26:56;2.50;99.90
20845;DHT22;10583;49.084;8.646;2023-02-26T12:32:43;2.90;99.90
20845;DHT22;10583;49.084;8.646;2023-02-26T12:35:29;3.00;99.90
20845;DHT22;10583;49.084;8.646;2023-02-26T12:38:08;2.90;99.90
20845;DHT22;10583;49.084;8.646;2023-02-26T12:40:53;2.90;99.90
20845;DHT22;10583;49.084;8.646;2023-02-26T12:43:29;2.90;99.90
20845;DHT22;10583;49.084;8.646;2023-02-26T12:46:04;2.90;99.90
20845;DHT22;10583;49.084;8.646;2023-02-26T12:48:52;2.90;99.90
20845;DHT22;10583;49.084;8.646;2023-02-26T12:51:33;2.80;99.90
20845;DHT22;10583;49.084;8.646;2023-02-26T12:54:29;2.90;99.90
20845;DHT22;10583;49.084;8.646;2023-02-26T12:57:17;2.90;99.90
20845;DHT22;10583;49.084;8.646;2023-02-26T13:00:12;2.80;99.90
20845;DHT22;10583;49.084;8.646;2023-02-26T13:03:10;2.80;99.90
20845;DHT22;10583;49.084;8.646;2023-02-26T13:05:50;2.80;99.90
20845;DHT22;10583;49.084;8.646;2023-02-26T13:08:24;2.90;99.90
20845;DHT22;10583;49.084;8.646;2023-02-26T13:11:04;2.90;99.90
20845;DHT22;10583;49.084;8.646;2023-02-26T13:13:51;2.80;99.90
20845;DHT22;10583;49.084;8.646;2023-02-26T13:16:28;2.70;99.90
20845;DHT22;10583;49.084;8.646;2023-02-26T13:19:05;2.60;99.90
20845;DHT22;10583;49.084;8.646;2023-02-26T13:21:35;2.70;99.90
20845;DHT22;10583;49.084;8.646;2023-02-26T13:24:06;2.70;99.90
20845;DHT22;10583;49.084;8.646;2023-02-26T13:26:35;2.70;99.90
20845;DHT22;10583;49.084;8.646;2023-02-26T13:29:09;2.70;99.90
20845;DHT22;10583;49.084;8.646;2023-02-26T13:31:40;2.80;99.90
20845;DHT22;10583;49.084;8.646;2023-02-26T13:34:12;3.00;99.90
20845;DHT22;10583;49.084;8.646;2023-02-26T13:36:41;3.00;99.90
20845;DHT22;10583;49.084;8.646;2023-02-26T13:39:37;3.10;99.90
20845;DHT22;10583;49.084;8.646;2023-02-26T13:42:13;3.40;99.90
20845;DHT22;10583;49.084;8.646;2023-02-26T13:44:50;3.80;99.90
20845;DHT22;10583;49.084;8.646;2023-02-26T13:47:40;3.80;99.90
20845;DHT22;10583;49.084;8.646;2023-02-26T13:50:22;3.60;99.90
20845;DHT22;10583;49.084;8.646;2023-02-26T13:52:52;3.40;99.90
20845;DHT22;10583;49.084;8.646;2023-02-26T13:55:43;3.20;99.90
20845;DHT22;10583;49.084;8.646;2023-02-26T13:58:26;3.10;99.90
20845;DHT22;10583;49.084;8.646;2023-02-26T14:00:59;3.10;99.90
20845;DHT22;10583;49.084;8.646;2023-02-26T14:03:32;3.10;99.90
20845;DHT22;10583;49.084;8.646;2023-02-26T14:06:21;3.10;99.90
20845;DHT22;10583;49.084;8.646;2023-02-26T14:08:51;3.20;99.90
20845;DHT22;10583;49.084;8.646;2023-02-26T14:14:11;3.00;99.90
20845;DHT22;10583;49.084;8.646;2023-02-26T14:16:42;3.00;99.90
20845;DHT22;10583;49.084;8.646;2023-02-26T14:19:22;3.00;99.90
20845;DHT22;10583;49.084;8.646;2023-02-26T14:21:50;3.00;99.90
20845;DHT22;10583;49.084;8.646;2023-02-26T14:24:21;3.00;99.90
20845;DHT22;10583;49.084;8.646;2023-02-26T14:26:50;3.10;99.90
20845;DHT22;10583;49.084;8.646;2023-02-26T14:29:21;3.20;99.90
20845;DHT22;10583;49.084;8.646;2023-02-26T14:32:05;3.10;99.90
20845;DHT22;10583;49.084;8.646;2023-02-26T14:34:45;3.10;99.90
20845;DHT22;10583;49.084;8.646;2023-02-26T14:37:15;3.10;99.90
20845;DHT22;10583;49.084;8.646;2023-02-26T14:39:47;3.20;99.90
20845;DHT22;10583;49.084;8.646;2023-02-26T14:42:18;3.10;99.90
20845;DHT22;10583;49.084;8.646;2023-02-26T14:44:49;3.10;99.90
20845;DHT22;10583;49.084;8.646;2023-02-26T14:47:19;3.20;99.90
20845;DHT22;10583;49.084;8.646;2023-02-26T14:49:47;3.20;99.90
20845;DHT22;10583;49.084;8.646;2023-02-26T14:52:37;3.20;99.90
20845;DHT22;10583;49.084;8.646;2023-02-26T14:58:20;3.20;99.90
20845;DHT22;10583;49.084;8.646;2023-02-26T15:00:53;3.30;99.90
20845;DHT22;10583;49.084;8.646;2023-02-26T15:03:51;3.30;99.90
20845;DHT22;10583;49.084;8.646;2023-02-26T15:06:30;3.20;99.90
20845;DHT22;10583;49.084;8.646;2023-02-26T15:09:10;3.20;99.90
20845;DHT22;10583;49.084;8.646;2023-02-26T15:11:55;3.20;99.90
20845;DHT22;10583;49.084;8.646;2023-02-26T15:14:36;3.20;99.90
20845;DHT22;10583;49.084;8.646;2023-02-26T15:17:16;3.10;99.90
20845;DHT22;10583;49.084;8.646;2023-02-26T15:20:00;3.00;99.90
20845;DHT22;10583;49.084;8.646;2023-02-26T15:22:39;3.00;99.90
20845;DHT22;10583;49.084;8.646;2023-02-26T15:25:27;3.10;99.90
20845;DHT22;10583;49.084;8.646;2023-02-26T15:27:55;3.00;99.90
20845;DHT22;10583;49.084;8.646;2023-02-26T15:30:23;3.00;99.90
20845;DHT22;10583;49.084;8.646;2023-02-26T15:32:55;3.00;99.90
20845;DHT22;10583;49.084;8.646;2023-02-26T15:35:27;3.00;99.90
20845;DHT22;10583;49.084;8.646;2023-02-26T15:37:56;3.00;99.90
20845;DHT22;10583;49.084;8.646;2023-02-26T15:40:26;3.10;99.90
20845;DHT22;10583;49.084;8.646;2023-02-26T15:42:56;3.00;99.90
20845;DHT22;10583;49.084;8.646;2023-02-26T15:45:26;2.90;99.90
20845;DHT22;10583;49.084;8.646;2023-02-26T15:47:55;2.80;99.90
20845;DHT22;10583;49.084;8.646;2023-02-26T15:50:28;2.80;99.90
20845;DHT22;10583;49.084;8.646;2023-02-26T15:52:57;2.70;99.90
20845;DHT22;10583;49.084;8.646;2023-02-26T15:55:25;2.70;99.90
20845;DHT22;10583;49.084;8.646;2023-02-26T15:57:52;2.70;99.90
20845;DHT22;10583;49.084;8.646;2023-02-26T16:00:21;2.70;99.90
20845;DHT22;10583;49.084;8.646;2023-02-26T16:02:51;2.60;99.90
20845;DHT22;10583;49.084;8.646;2023-02-26T16:05:19;2.70;99.90
20845;DHT22;10583;49.084;8.646;2023-02-26T16:07:47;2.60;99.90
20845;DHT22;10583;49.084;8.646;2023-02-26T16:10:17;2.60;99.90
20845;DHT22;10583;49.084;8.646;2023-02-26T16:12:45;2.60;99.90
20845;DHT22;10583;49.084;8.646;2023-02-26T16:15:16;2.60;99.90
20845;DHT22;10583;49.084;8.646;2023-02-26T16:17:47;2.60;99.90